sensor_id;sensor_type;location;lat;lon;timestamp;P1;durP1;ratioP1;P2;durP2;ratioP2
7215;SDS011;3649;48.798;9.798;2022-12-07T00:01:17;5.60;;;5.10;;
7215;SDS011;3649;48.798;9.798;2022-12-07T00:03:51;5.20;;;4.70;;
7215;SDS011;3649;48.798;9.798;2022-12-07T00:06:19;6.00;;;5.50;;
7215;SDS011;3649;48.798;9.798;2022-12-07T00:08:46;6.37;;;4.87;;
7215;SDS011;3649;48.798;9.798;2022-12-07T00:11:15;5.27;;;4.77;;
7215;SDS011;3649;48.798;9.798;2022-12-07T00:13:44;7.00;;;5.90;;
7215;SDS011;3649;48.798;9.798;2022-12-07T00:16:17;8.10;;;6.83;;
7215;SDS011;3649;48.798;9.798;2022-12-07T00:18:47;5.67;;;5.17;;
7215;SDS011;3649;48.798;9.798;2022-12-07T00:21:18;5.20;;;4.70;;
7215;SDS011;3649;48.798;9.798;2022-12-07T00:23:47;5.47;;;5.07;;
7215;SDS011;3649;48.798;9.798;2022-12-07T00:26:17;6.30;;;5.00;;
7215;SDS011;3649;48.798;9.798;2022-12-07T00:28:46;9.03;;;5.77;;
7215;SDS011;3649;48.798;9.798;2022-12-07T00:31:14;5.90;;;5.40;;
7215;SDS011;3649;48.798;9.798;2022-12-07T00:33:42;6.07;;;5.13;;
7215;SDS011;3649;48.798;9.798;2022-12-07T00:36:10;5.30;;;4.80;;
7215;SDS011;3649;48.798;9.798;2022-12-07T00:38:40;5.87;;;5.27;;
7215;SDS011;3649;48.798;9.798;2022-12-07T00:41:14;5.83;;;5.20;;
7215;SDS011;3649;48.798;9.798;2022-12-07T00:43:43;6.00;;;5.50;;
7215;SDS011;3649;48.798;9.798;2022-12-07T00:46:11;5.07;;;4.63;;
7215;SDS011;3649;48.798;9.798;2022-12-07T00:48:39;5.10;;;4.70;;
7215;SDS011;3649;48.798;9.798;2022-12-07T00:51:06;5.60;;;5.10;;
7215;SDS011;3649;48.798;9.798;2022-12-07T00:53:34;5.97;;;5.37;;
7215;SDS011;3649;48.798;9.798;2022-12-07T00:56:16;6.10;;;5.13;;
7215;SDS011;3649;48.798;9.798;2022-12-07T00:58:49;7.17;;;4.77;;
7215;SDS011;3649;48.798;9.798;2022-12-07T01:01:17;6.00;;;5.50;;
7215;SDS011;3649;48.798;9.798;2022-12-07T01:03:44;5.47;;;5.07;;
7215;SDS011;3649;48.798;9.798;2022-12-07T01:06:13;5.63;;;5.10;;
7215;SDS011;3649;48.798;9.798;2022-12-07T01:08:53;8.57;;;5.50;;
7215;SDS011;3649;48.798;9.798;2022-12-07T01:11:22;6.20;;;5.60;;
7215;SDS011;3649;48.798;9.798;2022-12-07T01:13:51;5.83;;;5.33;;
7215;SDS011;3649;48.798;9.798;2022-12-07T01:16:19;5.67;;;5.20;;
7215;SDS011;3649;48.798;9.798;2022-12-07T01:18:48;6.10;;;5.40;;
7215;SDS011;3649;48.798;9.798;2022-12-07T01:21:27;5.20;;;4.80;;
7215;SDS011;3649;48.798;9.798;2022-12-07T01:23:56;6.93;;;5.93;;
7215;SDS011;3649;48.798;9.798;2022-12-07T01:26:24;6.60;;;6.00;;
7215;SDS011;3649;48.798;9.798;2022-12-07T01:28:52;6.30;;;5.70;;
7215;SDS011;3649;48.798;9.798;2022-12-07T01:31:22;6.13;;;5.63;;
7215;SDS011;3649;48.798;9.798;2022-12-07T01:33:53;6.33;;;5.27;;
7215;SDS011;3649;48.798;9.798;2022-12-07T01:36:29;7.03;;;6.00;;
7215;SDS011;3649;48.798;9.798;2022-12-07T01:39:02;6.90;;;6.20;;
7215;SDS011;3649;48.798;9.798;2022-12-07T01:41:32;6.83;;;6.13;;
7215;SDS011;3649;48.798;9.798;2022-12-07T01:46:52;6.83;;;6.20;;
7215;SDS011;3649;48.798;9.798;2022-12-07T01:54:46;8.57;;;6.43;;
7215;SDS011;3649;48.798;9.798;2022-12-07T01:57:16;8.80;;;7.93;;
7215;SDS011;3649;48.798;9.798;2022-12-07T01:59:44;8.20;;;7.50;;
7215;SDS011;3649;48.798;9.798;2022-12-07T02:02:25;8.93;;;7.73;;
7215;SDS011;3649;48.798;9.798;2022-12-07T02:04:58;8.50;;;7.17;;
7215;SDS011;3649;48.798;9.798;2022-12-07T02:07:26;9.43;;;7.73;;
7215;SDS011;3649;48.798;9.798;2022-12-07T02:09:54;7.93;;;7.00;;
7215;SDS011;3649;48.798;9.798;2022-12-07T02:12:21;8.40;;;7.60;;
7215;SDS011;3649;48.798;9.798;2022-12-07T02:14:51;8.10;;;7.37;;
7215;SDS011;3649;48.798;9.798;2022-12-07T02:20:18;7.90;;;6.97;;
7215;SDS011;3649;48.798;9.798;2022-12-07T02:28:31;8.23;;;7.27;;
7215;SDS011;3649;48.798;9.798;2022-12-07T02:31:10;7.80;;;7.00;;
7215;SDS011;3649;48.798;9.798;2022-12-07T02:33:47;9.07;;;7.97;;
7215;SDS011;3649;48.798;9.798;2022-12-07T02:36:21;10.33;;;7.60;;
7215;SDS011;3649;48.798;9.798;2022-12-07T02:41:28;9.63;;;8.20;;
7215;SDS011;3649;48.798;9.798;2022-12-07T02:44:03;10.67;;;8.00;;
7215;SDS011;3649;48.798;9.798;2022-12-07T02:46:36;7.83;;;6.77;;
7215;SDS011;3649;48.798;9.798;2022-12-07T02:49:07;10.23;;;7.90;;
7215;SDS011;3649;48.798;9.798;2022-12-07T02:51:38;8.43;;;7.63;;
7215;SDS011;3649;48.798;9.798;2022-12-07T02:54:17;10.43;;;8.10;;
7215;SDS011;3649;48.798;9.798;2022-12-07T03:13:10;8.77;;;7.87;;
7215;SDS011;3649;48.798;9.798;2022-12-07T03:18:31;9.70;;;8.70;;
7215;SDS011;3649;48.798;9.798;2022-12-07T03:21:08;9.67;;;8.47;;
7215;SDS011;3649;48.798;9.798;2022-12-07T03:23:40;9.70;;;8.70;;
7215;SDS011;3649;48.798;9.798;2022-12-07T03:26:11;9.13;;;8.23;;
7215;SDS011;3649;48.798;9.798;2022-12-07T03:28:42;8.73;;;7.73;;
7215;SDS011;3649;48.798;9.798;2022-12-07T03:31:18;9.67;;;8.17;;
7215;SDS011;3649;48.798;9.798;2022-12-07T03:34:07;9.10;;;7.80;;
7215;SDS011;3649;48.798;9.798;2022-12-07T03:36:37;9.57;;;8.13;;
7215;SDS011;3649;48.798;9.798;2022-12-07T03:39:11;11.50;;;8.80;;
7215;SDS011;3649;48.798;9.798;2022-12-07T03:41:43;10.03;;;8.93;;
7215;SDS011;3649;48.798;9.798;2022-12-07T03:44:12;9.37;;;8.40;;
7215;SDS011;3649;48.798;9.798;2022-12-07T03:49:37;9.20;;;8.30;;
7215;SDS011;3649;48.798;9.798;2022-12-07T03:52:36;9.53;;;8.63;;
7215;SDS011;3649;48.798;9.798;2022-12-07T03:57:55;9.37;;;8.47;;
7215;SDS011;3649;48.798;9.798;2022-12-07T04:00:25;10.97;;;9.13;;
7215;SDS011;3649;48.798;9.798;2022-12-07T04:02:52;10.93;;;8.60;;
7215;SDS011;3649;48.798;9.798;2022-12-07T04:05:20;9.53;;;8.63;;
7215;SDS011;3649;48.798;9.798;2022-12-07T04:07:47;11.73;;;9.37;;
7215;SDS011;3649;48.798;9.798;2022-12-07T04:10:13;10.60;;;9.03;;
7215;SDS011;3649;48.798;9.798;2022-12-07T04:12:40;11.50;;;9.73;;
7215;SDS011;3649;48.798;9.798;2022-12-07T04:15:07;11.50;;;8.83;;
7215;SDS011;3649;48.798;9.798;2022-12-07T04:17:35;11.70;;;9.20;;
7215;SDS011;3649;48.798;9.798;2022-12-07T04:20:02;11.63;;;9.40;;
7215;SDS011;3649;48.798;9.798;2022-12-07T04:22:30;13.70;;;9.37;;
7215;SDS011;3649;48.798;9.798;2022-12-07T04:24:57;11.00;;;9.70;;
7215;SDS011;3649;48.798;9.798;2022-12-07T04:27:24;13.30;;;9.87;;
7215;SDS011;3649;48.798;9.798;2022-12-07T04:29:54;10.97;;;9.70;;
7215;SDS011;3649;48.798;9.798;2022-12-07T04:32:22;11.97;;;9.80;;
7215;SDS011;3649;48.798;9.798;2022-12-07T04:34:52;10.47;;;9.43;;
7215;SDS011;3649;48.798;9.798;2022-12-07T04:37:21;11.63;;;9.90;;
7215;SDS011;3649;48.798;9.798;2022-12-07T04:39:48;10.43;;;9.27;;
7215;SDS011;3649;48.798;9.798;2022-12-07T04:42:15;14.30;;;11.20;;
7215;SDS011;3649;48.798;9.798;2022-12-07T04:44:42;11.03;;;9.63;;
7215;SDS011;3649;48.798;9.798;2022-12-07T04:47:11;11.37;;;9.53;;
7215;SDS011;3649;48.798;9.798;2022-12-07T04:49:38;13.63;;;10.43;;
7215;SDS011;3649;48.798;9.798;2022-12-07T04:52:05;11.63;;;10.23;;
7215;SDS011;3649;48.798;9.798;2022-12-07T04:54:32;10.80;;;9.70;;
7215;SDS011;3649;48.798;9.798;2022-12-07T04:56:58;13.17;;;10.60;;
7215;SDS011;3649;48.798;9.798;2022-12-07T04:59:25;11.77;;;10.43;;
7215;SDS011;3649;48.798;9.798;2022-12-07T05:01:52;14.03;;;10.10;;
7215;SDS011;3649;48.798;9.798;2022-12-07T05:04:19;12.50;;;10.20;;
7215;SDS011;3649;48.798;9.798;2022-12-07T05:06:46;11.10;;;9.47;;
7215;SDS011;3649;48.798;9.798;2022-12-07T05:09:13;13.53;;;10.63;;
7215;SDS011;3649;48.798;9.798;2022-12-07T05:11:39;14.83;;;10.33;;
7215;SDS011;3649;48.798;9.798;2022-12-07T05:14:08;11.03;;;9.83;;
7215;SDS011;3649;48.798;9.798;2022-12-07T05:16:43;11.30;;;9.83;;
7215;SDS011;3649;48.798;9.798;2022-12-07T05:19:12;13.03;;;10.43;;
7215;SDS011;3649;48.798;9.798;2022-12-07T05:21:39;13.50;;;10.30;;
7215;SDS011;3649;48.798;9.798;2022-12-07T05:24:07;11.03;;;9.70;;
7215;SDS011;3649;48.798;9.798;2022-12-07T05:26:35;12.80;;;9.70;;
7215;SDS011;3649;48.798;9.798;2022-12-07T05:29:05;11.77;;;9.87;;
7215;SDS011;3649;48.798;9.798;2022-12-07T05:31:32;16.00;;;10.43;;
7215;SDS011;3649;48.798;9.798;2022-12-07T05:34:00;11.63;;;9.17;;
7215;SDS011;3649;48.798;9.798;2022-12-07T05:36:27;12.17;;;10.07;;
7215;SDS011;3649;48.798;9.798;2022-12-07T05:38:55;11.67;;;10.17;;
7215;SDS011;3649;48.798;9.798;2022-12-07T05:41:21;13.23;;;10.37;;
7215;SDS011;3649;48.798;9.798;2022-12-07T05:44:07;12.33;;;8.63;;
7215;SDS011;3649;48.798;9.798;2022-12-07T05:46:34;10.83;;;9.43;;
7215;SDS011;3649;48.798;9.798;2022-12-07T05:49:01;13.60;;;9.67;;
7215;SDS011;3649;48.798;9.798;2022-12-07T05:51:28;10.00;;;8.97;;
7215;SDS011;3649;48.798;9.798;2022-12-07T05:53:55;12.10;;;9.40;;
7215;SDS011;3649;48.798;9.798;2022-12-07T05:56:22;11.23;;;9.47;;
7215;SDS011;3649;48.798;9.798;2022-12-07T05:58:49;10.57;;;9.23;;
7215;SDS011;3649;48.798;9.798;2022-12-07T06:01:34;12.00;;;10.33;;
7215;SDS011;3649;48.798;9.798;2022-12-07T06:04:01;12.17;;;10.07;;
7215;SDS011;3649;48.798;9.798;2022-12-07T06:06:28;11.83;;;10.30;;
7215;SDS011;3649;48.798;9.798;2022-12-07T06:08:55;10.77;;;9.23;;
7215;SDS011;3649;48.798;9.798;2022-12-07T06:11:22;12.70;;;9.90;;
7215;SDS011;3649;48.798;9.798;2022-12-07T06:14:07;12.50;;;9.87;;
7215;SDS011;3649;48.798;9.798;2022-12-07T06:16:34;14.50;;;9.60;;
7215;SDS011;3649;48.798;9.798;2022-12-07T06:19:01;11.73;;;9.77;;
7215;SDS011;3649;48.798;9.798;2022-12-07T06:21:28;14.97;;;9.87;;
7215;SDS011;3649;48.798;9.798;2022-12-07T06:23:55;12.13;;;10.07;;
7215;SDS011;3649;48.798;9.798;2022-12-07T06:26:22;12.60;;;10.33;;
7215;SDS011;3649;48.798;9.798;2022-12-07T06:28:49;13.03;;;9.80;;
7215;SDS011;3649;48.798;9.798;2022-12-07T06:31:16;11.60;;;10.20;;
7215;SDS011;3649;48.798;9.798;2022-12-07T06:33:43;16.47;;;11.07;;
7215;SDS011;3649;48.798;9.798;2022-12-07T06:36:10;13.27;;;11.13;;
7215;SDS011;3649;48.798;9.798;2022-12-07T06:38:37;14.93;;;10.93;;
7215;SDS011;3649;48.798;9.798;2022-12-07T06:41:04;13.83;;;11.03;;
7215;SDS011;3649;48.798;9.798;2022-12-07T06:43:32;16.90;;;12.07;;
7215;SDS011;3649;48.798;9.798;2022-12-07T06:46:00;12.80;;;10.73;;
7215;SDS011;3649;48.798;9.798;2022-12-07T06:48:27;16.00;;;10.27;;
7215;SDS011;3649;48.798;9.798;2022-12-07T06:50:54;11.57;;;10.00;;
7215;SDS011;3649;48.798;9.798;2022-12-07T06:53:21;13.77;;;10.23;;
7215;SDS011;3649;48.798;9.798;2022-12-07T06:55:48;14.97;;;11.23;;
7215;SDS011;3649;48.798;9.798;2022-12-07T06:58:16;11.03;;;8.70;;
7215;SDS011;3649;48.798;9.798;2022-12-07T07:00:44;11.90;;;9.60;;
7215;SDS011;3649;48.798;9.798;2022-12-07T07:03:12;13.20;;;9.00;;
7215;SDS011;3649;48.798;9.798;2022-12-07T07:05:39;11.03;;;9.17;;
7215;SDS011;3649;48.798;9.798;2022-12-07T07:08:06;10.90;;;9.40;;
7215;SDS011;3649;48.798;9.798;2022-12-07T07:10:49;11.13;;;9.23;;
7215;SDS011;3649;48.798;9.798;2022-12-07T07:13:17;12.23;;;10.13;;
7215;SDS011;3649;48.798;9.798;2022-12-07T07:15:44;14.00;;;10.17;;
7215;SDS011;3649;48.798;9.798;2022-12-07T07:18:11;11.10;;;9.30;;
7215;SDS011;3649;48.798;9.798;2022-12-07T07:20:38;10.77;;;8.90;;
7215;SDS011;3649;48.798;9.798;2022-12-07T07:23:05;12.67;;;10.27;;
7215;SDS011;3649;48.798;9.798;2022-12-07T07:25:32;14.40;;;9.57;;
7215;SDS011;3649;48.798;9.798;2022-12-07T07:27:59;10.83;;;9.37;;
7215;SDS011;3649;48.798;9.798;2022-12-07T07:30:27;19.27;;;10.47;;
7215;SDS011;3649;48.798;9.798;2022-12-07T07:32:57;10.37;;;8.80;;
7215;SDS011;3649;48.798;9.798;2022-12-07T07:35:27;11.23;;;8.77;;
7215;SDS011;3649;48.798;9.798;2022-12-07T07:37:55;10.17;;;9.03;;
7215;SDS011;3649;48.798;9.798;2022-12-07T07:40:22;10.97;;;9.63;;
7215;SDS011;3649;48.798;9.798;2022-12-07T07:42:53;12.70;;;9.70;;
7215;SDS011;3649;48.798;9.798;2022-12-07T07:45:21;11.47;;;9.37;;
7215;SDS011;3649;48.798;9.798;2022-12-07T07:47:50;14.07;;;9.63;;
7215;SDS011;3649;48.798;9.798;2022-12-07T07:50:17;10.20;;;9.10;;
7215;SDS011;3649;48.798;9.798;2022-12-07T07:52:44;11.63;;;9.23;;
7215;SDS011;3649;48.798;9.798;2022-12-07T07:55:12;18.07;;;11.17;;
7215;SDS011;3649;48.798;9.798;2022-12-07T07:57:39;11.03;;;9.40;;
7215;SDS011;3649;48.798;9.798;2022-12-07T08:00:08;10.80;;;9.27;;
7215;SDS011;3649;48.798;9.798;2022-12-07T08:02:37;11.97;;;10.00;;
7215;SDS011;3649;48.798;9.798;2022-12-07T08:05:04;10.97;;;9.50;;
7215;SDS011;3649;48.798;9.798;2022-12-07T08:07:31;13.10;;;9.37;;
7215;SDS011;3649;48.798;9.798;2022-12-07T08:09:58;14.20;;;9.47;;
7215;SDS011;3649;48.798;9.798;2022-12-07T08:12:27;12.93;;;10.00;;
7215;SDS011;3649;48.798;9.798;2022-12-07T08:14:54;13.53;;;9.63;;
7215;SDS011;3649;48.798;9.798;2022-12-07T08:17:21;10.20;;;8.83;;
7215;SDS011;3649;48.798;9.798;2022-12-07T08:19:48;11.80;;;8.97;;
7215;SDS011;3649;48.798;9.798;2022-12-07T08:22:15;10.40;;;8.07;;
7215;SDS011;3649;48.798;9.798;2022-12-07T08:24:41;12.07;;;9.23;;
7215;SDS011;3649;48.798;9.798;2022-12-07T08:27:14;12.73;;;10.10;;
7215;SDS011;3649;48.798;9.798;2022-12-07T08:29:40;10.10;;;8.73;;
7215;SDS011;3649;48.798;9.798;2022-12-07T08:32:07;15.33;;;9.40;;
7215;SDS011;3649;48.798;9.798;2022-12-07T08:34:35;13.67;;;10.17;;
7215;SDS011;3649;48.798;9.798;2022-12-07T08:37:03;11.67;;;9.03;;
7215;SDS011;3649;48.798;9.798;2022-12-07T08:39:30;15.47;;;9.67;;
7215;SDS011;3649;48.798;9.798;2022-12-07T08:41:58;15.97;;;10.20;;
7215;SDS011;3649;48.798;9.798;2022-12-07T08:44:25;11.93;;;9.10;;
7215;SDS011;3649;48.798;9.798;2022-12-07T08:46:54;10.87;;;9.17;;
7215;SDS011;3649;48.798;9.798;2022-12-07T08:49:42;13.80;;;10.13;;
7215;SDS011;3649;48.798;9.798;2022-12-07T08:52:13;11.23;;;8.67;;
7215;SDS011;3649;48.798;9.798;2022-12-07T08:54:40;11.60;;;8.87;;
7215;SDS011;3649;48.798;9.798;2022-12-07T08:57:07;10.03;;;8.47;;
7215;SDS011;3649;48.798;9.798;2022-12-07T08:59:36;12.10;;;9.20;;
7215;SDS011;3649;48.798;9.798;2022-12-07T09:02:04;11.23;;;8.37;;
7215;SDS011;3649;48.798;9.798;2022-12-07T09:04:32;12.90;;;9.80;;
7215;SDS011;3649;48.798;9.798;2022-12-07T09:06:59;12.40;;;8.80;;
7215;SDS011;3649;48.798;9.798;2022-12-07T09:09:26;9.70;;;8.27;;
7215;SDS011;3649;48.798;9.798;2022-12-07T09:11:53;9.40;;;8.23;;
7215;SDS011;3649;48.798;9.798;2022-12-07T09:14:20;10.17;;;8.80;;
7215;SDS011;3649;48.798;9.798;2022-12-07T09:16:47;12.93;;;8.37;;
7215;SDS011;3649;48.798;9.798;2022-12-07T09:19:14;9.60;;;8.23;;
7215;SDS011;3649;48.798;9.798;2022-12-07T09:21:41;10.30;;;7.87;;
7215;SDS011;3649;48.798;9.798;2022-12-07T09:24:08;12.87;;;7.87;;
7215;SDS011;3649;48.798;9.798;2022-12-07T09:26:36;9.53;;;7.37;;
7215;SDS011;3649;48.798;9.798;2022-12-07T09:29:04;11.13;;;7.77;;
7215;SDS011;3649;48.798;9.798;2022-12-07T09:31:31;10.57;;;8.10;;
7215;SDS011;3649;48.798;9.798;2022-12-07T09:33:58;9.30;;;8.30;;
7215;SDS011;3649;48.798;9.798;2022-12-07T09:36:27;9.63;;;7.93;;
7215;SDS011;3649;48.798;9.798;2022-12-07T09:38:54;11.07;;;8.43;;
7215;SDS011;3649;48.798;9.798;2022-12-07T09:41:22;11.97;;;9.43;;
7215;SDS011;3649;48.798;9.798;2022-12-07T09:43:51;14.97;;;11.10;;
7215;SDS011;3649;48.798;9.798;2022-12-07T09:46:24;9.63;;;7.97;;
7215;SDS011;3649;48.798;9.798;2022-12-07T09:49:01;9.17;;;7.60;;
7215;SDS011;3649;48.798;9.798;2022-12-07T09:51:28;8.30;;;7.07;;
7215;SDS011;3649;48.798;9.798;2022-12-07T09:53:56;11.07;;;8.30;;
7215;SDS011;3649;48.798;9.798;2022-12-07T09:56:24;10.13;;;8.73;;
7215;SDS011;3649;48.798;9.798;2022-12-07T09:58:54;8.80;;;7.83;;
7215;SDS011;3649;48.798;9.798;2022-12-07T10:01:28;8.27;;;6.80;;
7215;SDS011;3649;48.798;9.798;2022-12-07T10:04:02;8.87;;;7.60;;
7215;SDS011;3649;48.798;9.798;2022-12-07T10:06:33;8.10;;;7.30;;
7215;SDS011;3649;48.798;9.798;2022-12-07T10:08:59;8.67;;;7.27;;
7215;SDS011;3649;48.798;9.798;2022-12-07T10:11:26;8.57;;;7.73;;
7215;SDS011;3649;48.798;9.798;2022-12-07T10:13:53;9.50;;;8.10;;
7215;SDS011;3649;48.798;9.798;2022-12-07T10:16:27;7.90;;;6.77;;
7215;SDS011;3649;48.798;9.798;2022-12-07T10:19:16;9.63;;;7.60;;
7215;SDS011;3649;48.798;9.798;2022-12-07T10:24:25;8.47;;;7.00;;
7215;SDS011;3649;48.798;9.798;2022-12-07T10:26:53;8.27;;;7.43;;
7215;SDS011;3649;48.798;9.798;2022-12-07T10:29:30;11.93;;;7.23;;
7215;SDS011;3649;48.798;9.798;2022-12-07T10:32:00;10.00;;;7.47;;
7215;SDS011;3649;48.798;9.798;2022-12-07T10:34:31;8.67;;;7.10;;
7215;SDS011;3649;48.798;9.798;2022-12-07T10:39:55;8.47;;;6.83;;
7215;SDS011;3649;48.798;9.798;2022-12-07T10:45:13;8.93;;;7.47;;
7215;SDS011;3649;48.798;9.798;2022-12-07T10:50:36;7.17;;;6.47;;
7215;SDS011;3649;48.798;9.798;2022-12-07T10:53:23;11.50;;;7.47;;
7215;SDS011;3649;48.798;9.798;2022-12-07T10:56:12;9.23;;;6.77;;
7215;SDS011;3649;48.798;9.798;2022-12-07T11:01:53;7.73;;;6.93;;
7215;SDS011;3649;48.798;9.798;2022-12-07T11:05:22;8.13;;;7.20;;
7215;SDS011;3649;48.798;9.798;2022-12-07T11:07:29;8.63;;;6.87;;
7215;SDS011;3649;48.798;9.798;2022-12-07T11:12:54;8.50;;;6.80;;
7215;SDS011;3649;48.798;9.798;2022-12-07T11:15:41;7.47;;;6.43;;
7215;SDS011;3649;48.798;9.798;2022-12-07T11:37:32;8.47;;;6.60;;
7215;SDS011;3649;48.798;9.798;2022-12-07T11:40:05;7.20;;;6.50;;
7215;SDS011;3649;48.798;9.798;2022-12-07T11:42:42;8.73;;;5.20;;
7215;SDS011;3649;48.798;9.798;2022-12-07T11:45:33;10.10;;;6.00;;
7215;SDS011;3649;48.798;9.798;2022-12-07T11:48:12;6.27;;;5.10;;
7215;SDS011;3649;48.798;9.798;2022-12-07T11:50:47;11.07;;;5.43;;
7215;SDS011;3649;48.798;9.798;2022-12-07T11:53:25;6.53;;;4.97;;
7215;SDS011;3649;48.798;9.798;2022-12-07T11:56:12;7.27;;;5.50;;
7215;SDS011;3649;48.798;9.798;2022-12-07T12:06:37;9.10;;;5.83;;
7215;SDS011;3649;48.798;9.798;2022-12-07T12:09:12;6.90;;;5.30;;
7215;SDS011;3649;48.798;9.798;2022-12-07T12:15:42;9.70;;;5.57;;
7215;SDS011;3649;48.798;9.798;2022-12-07T12:18:16;6.50;;;5.77;;
7215;SDS011;3649;48.798;9.798;2022-12-07T12:23:49;7.27;;;5.73;;
7215;SDS011;3649;48.798;9.798;2022-12-07T12:26:21;6.13;;;5.53;;
7215;SDS011;3649;48.798;9.798;2022-12-07T12:31:31;10.77;;;6.13;;
7215;SDS011;3649;48.798;9.798;2022-12-07T12:34:29;7.83;;;6.20;;
7215;SDS011;3649;48.798;9.798;2022-12-07T12:45:23;9.37;;;5.57;;
7215;SDS011;3649;48.798;9.798;2022-12-07T12:47:56;8.80;;;6.17;;
7215;SDS011;3649;48.798;9.798;2022-12-07T12:50:35;6.03;;;5.43;;
7215;SDS011;3649;48.798;9.798;2022-12-07T13:00:45;9.43;;;6.70;;
7215;SDS011;3649;48.798;9.798;2022-12-07T13:03:47;7.20;;;5.90;;
7215;SDS011;3649;48.798;9.798;2022-12-07T13:08:46;6.20;;;5.60;;
7215;SDS011;3649;48.798;9.798;2022-12-07T13:11:20;7.10;;;5.93;;
7215;SDS011;3649;48.798;9.798;2022-12-07T13:19:59;6.23;;;5.63;;
7215;SDS011;3649;48.798;9.798;2022-12-07T13:24:58;8.20;;;5.13;;
7215;SDS011;3649;48.798;9.798;2022-12-07T13:27:31;5.50;;;4.70;;
7215;SDS011;3649;48.798;9.798;2022-12-07T13:29:58;6.97;;;4.80;;
7215;SDS011;3649;48.798;9.798;2022-12-07T13:32:26;5.67;;;4.70;;
7215;SDS011;3649;48.798;9.798;2022-12-07T13:34:54;5.97;;;5.00;;
7215;SDS011;3649;48.798;9.798;2022-12-07T13:37:25;6.43;;;5.13;;
7215;SDS011;3649;48.798;9.798;2022-12-07T13:40:17;7.53;;;5.53;;
7215;SDS011;3649;48.798;9.798;2022-12-07T13:42:45;6.83;;;5.27;;
7215;SDS011;3649;48.798;9.798;2022-12-07T13:45:30;7.50;;;5.70;;
7215;SDS011;3649;48.798;9.798;2022-12-07T13:48:32;6.43;;;5.47;;
7215;SDS011;3649;48.798;9.798;2022-12-07T13:51:17;7.77;;;5.13;;
7215;SDS011;3649;48.798;9.798;2022-12-07T13:53:51;7.77;;;5.10;;
7215;SDS011;3649;48.798;9.798;2022-12-07T13:56:24;7.83;;;5.40;;
7215;SDS011;3649;48.798;9.798;2022-12-07T13:58:57;8.50;;;4.83;;
7215;SDS011;3649;48.798;9.798;2022-12-07T14:01:28;5.93;;;5.33;;
7215;SDS011;3649;48.798;9.798;2022-12-07T14:07:23;7.30;;;4.80;;
7215;SDS011;3649;48.798;9.798;2022-12-07T14:09:56;6.23;;;4.93;;
7215;SDS011;3649;48.798;9.798;2022-12-07T14:12:31;6.00;;;5.20;;
7215;SDS011;3649;48.798;9.798;2022-12-07T14:15:02;9.90;;;5.20;;
7215;SDS011;3649;48.798;9.798;2022-12-07T14:17:30;6.80;;;5.40;;
7215;SDS011;3649;48.798;9.798;2022-12-07T14:19:57;9.83;;;5.43;;
7215;SDS011;3649;48.798;9.798;2022-12-07T14:22:37;6.97;;;5.30;;
7215;SDS011;3649;48.798;9.798;2022-12-07T14:30:22;6.10;;;4.77;;
7215;SDS011;3649;48.798;9.798;2022-12-07T14:32:51;8.47;;;5.57;;
7215;SDS011;3649;48.798;9.798;2022-12-07T14:35:20;5.00;;;4.50;;
7215;SDS011;3649;48.798;9.798;2022-12-07T14:37:48;6.37;;;5.00;;
7215;SDS011;3649;48.798;9.798;2022-12-07T14:40:36;5.33;;;4.53;;
7215;SDS011;3649;48.798;9.798;2022-12-07T14:43:14;5.63;;;5.13;;
7215;SDS011;3649;48.798;9.798;2022-12-07T14:45:42;8.97;;;5.60;;
7215;SDS011;3649;48.798;9.798;2022-12-07T14:48:14;5.57;;;5.07;;
7215;SDS011;3649;48.798;9.798;2022-12-07T14:51:01;6.30;;;5.17;;
7215;SDS011;3649;48.798;9.798;2022-12-07T14:53:50;6.13;;;5.53;;
7215;SDS011;3649;48.798;9.798;2022-12-07T14:56:23;6.17;;;5.13;;
7215;SDS011;3649;48.798;9.798;2022-12-07T14:58:50;7.20;;;6.40;;
7215;SDS011;3649;48.798;9.798;2022-12-07T15:01:17;6.80;;;6.17;;
7215;SDS011;3649;48.798;9.798;2022-12-07T15:03:44;6.93;;;5.80;;
7215;SDS011;3649;48.798;9.798;2022-12-07T15:06:15;8.13;;;6.23;;
7215;SDS011;3649;48.798;9.798;2022-12-07T15:08:43;7.33;;;6.10;;
7215;SDS011;3649;48.798;9.798;2022-12-07T15:11:14;5.97;;;5.37;;
7215;SDS011;3649;48.798;9.798;2022-12-07T15:13:42;6.83;;;6.10;;
7215;SDS011;3649;48.798;9.798;2022-12-07T15:16:27;7.60;;;6.80;;
7215;SDS011;3649;48.798;9.798;2022-12-07T15:19:15;7.67;;;6.87;;
7215;SDS011;3649;48.798;9.798;2022-12-07T15:21:53;8.67;;;5.77;;
7215;SDS011;3649;48.798;9.798;2022-12-07T15:24:20;6.90;;;6.20;;
7215;SDS011;3649;48.798;9.798;2022-12-07T15:26:47;6.90;;;6.00;;
7215;SDS011;3649;48.798;9.798;2022-12-07T15:29:14;10.67;;;6.47;;
7215;SDS011;3649;48.798;9.798;2022-12-07T15:31:49;7.30;;;6.23;;
7215;SDS011;3649;48.798;9.798;2022-12-07T15:34:25;7.40;;;6.63;;
7215;SDS011;3649;48.798;9.798;2022-12-07T15:37:01;7.33;;;6.23;;
7215;SDS011;3649;48.798;9.798;2022-12-07T15:39:28;9.47;;;6.70;;
7215;SDS011;3649;48.798;9.798;2022-12-07T15:41:55;9.43;;;7.80;;
7215;SDS011;3649;48.798;9.798;2022-12-07T15:44:21;13.10;;;8.27;;
7215;SDS011;3649;48.798;9.798;2022-12-07T15:47:06;9.90;;;7.77;;
7215;SDS011;3649;48.798;9.798;2022-12-07T15:49:33;9.00;;;7.33;;
7215;SDS011;3649;48.798;9.798;2022-12-07T15:52:00;9.30;;;7.70;;
7215;SDS011;3649;48.798;9.798;2022-12-07T15:54:27;12.27;;;8.90;;
7215;SDS011;3649;48.798;9.798;2022-12-07T15:56:55;11.83;;;8.60;;
7215;SDS011;3649;48.798;9.798;2022-12-07T15:59:22;9.47;;;8.00;;
7215;SDS011;3649;48.798;9.798;2022-12-07T16:01:49;7.90;;;7.10;;
7215;SDS011;3649;48.798;9.798;2022-12-07T16:04:17;10.90;;;6.97;;
7215;SDS011;3649;48.798;9.798;2022-12-07T16:06:43;8.53;;;7.47;;
7215;SDS011;3649;48.798;9.798;2022-12-07T16:09:10;10.47;;;8.10;;
7215;SDS011;3649;48.798;9.798;2022-12-07T16:11:37;11.20;;;7.73;;
7215;SDS011;3649;48.798;9.798;2022-12-07T16:14:04;9.73;;;7.30;;
7215;SDS011;3649;48.798;9.798;2022-12-07T16:16:31;11.20;;;8.00;;
7215;SDS011;3649;48.798;9.798;2022-12-07T16:18:58;10.07;;;8.70;;
7215;SDS011;3649;48.798;9.798;2022-12-07T16:21:25;10.27;;;8.10;;
7215;SDS011;3649;48.798;9.798;2022-12-07T16:23:51;10.00;;;8.00;;
7215;SDS011;3649;48.798;9.798;2022-12-07T16:26:19;13.13;;;8.30;;
7215;SDS011;3649;48.798;9.798;2022-12-07T16:28:48;15.07;;;7.83;;
7215;SDS011;3649;48.798;9.798;2022-12-07T16:31:17;11.97;;;7.90;;
7215;SDS011;3649;48.798;9.798;2022-12-07T16:33:47;9.50;;;7.60;;
7215;SDS011;3649;48.798;9.798;2022-12-07T16:36:15;10.30;;;7.80;;
7215;SDS011;3649;48.798;9.798;2022-12-07T16:39:03;10.30;;;8.00;;
7215;SDS011;3649;48.798;9.798;2022-12-07T16:41:31;10.47;;;8.37;;
7215;SDS011;3649;48.798;9.798;2022-12-07T16:44:02;9.03;;;8.07;;
7215;SDS011;3649;48.798;9.798;2022-12-07T16:46:34;10.57;;;8.10;;
7215;SDS011;3649;48.798;9.798;2022-12-07T16:49:02;11.03;;;7.90;;
7215;SDS011;3649;48.798;9.798;2022-12-07T16:51:30;11.70;;;7.83;;
7215;SDS011;3649;48.798;9.798;2022-12-07T16:53:57;13.07;;;8.27;;
7215;SDS011;3649;48.798;9.798;2022-12-07T16:56:24;9.27;;;8.30;;
7215;SDS011;3649;48.798;9.798;2022-12-07T16:58:53;12.97;;;8.87;;
7215;SDS011;3649;48.798;9.798;2022-12-07T17:01:21;9.50;;;7.57;;
7215;SDS011;3649;48.798;9.798;2022-12-07T17:03:49;10.43;;;8.27;;
7215;SDS011;3649;48.798;9.798;2022-12-07T17:06:17;11.63;;;8.67;;
7215;SDS011;3649;48.798;9.798;2022-12-07T17:08:46;11.33;;;8.03;;
7215;SDS011;3649;48.798;9.798;2022-12-07T17:11:15;9.47;;;8.13;;
7215;SDS011;3649;48.798;9.798;2022-12-07T17:13:44;10.00;;;8.03;;
7215;SDS011;3649;48.798;9.798;2022-12-07T17:16:29;13.20;;;9.60;;
7215;SDS011;3649;48.798;9.798;2022-12-07T17:18:57;10.67;;;8.10;;
7215;SDS011;3649;48.798;9.798;2022-12-07T17:21:24;11.53;;;8.00;;
7215;SDS011;3649;48.798;9.798;2022-12-07T17:23:51;12.93;;;8.90;;
7215;SDS011;3649;48.798;9.798;2022-12-07T17:26:19;15.63;;;9.33;;
7215;SDS011;3649;48.798;9.798;2022-12-07T17:28:48;12.57;;;9.00;;
7215;SDS011;3649;48.798;9.798;2022-12-07T17:31:16;19.17;;;10.33;;
7215;SDS011;3649;48.798;9.798;2022-12-07T17:33:45;13.43;;;10.13;;
7215;SDS011;3649;48.798;9.798;2022-12-07T17:36:12;11.60;;;8.73;;
7215;SDS011;3649;48.798;9.798;2022-12-07T17:38:44;10.97;;;8.03;;
7215;SDS011;3649;48.798;9.798;2022-12-07T17:41:11;10.97;;;8.73;;
7215;SDS011;3649;48.798;9.798;2022-12-07T17:44:03;12.93;;;9.20;;